Moland, Minnesota
Current Conditions -  °F | °C
As of 11:13 AM on Friday 24 Oct 2014 (Local Time) from KSYN Reporting Station
Broken Clouds Broken Clouds  
Wind Chill: 61°   Ceiling: 1400
Heat Index: 61°   Visibility: 10mi
Dew Point: 54°   Wind: 10mph
Humidity: 77%   Direction: 190°S
Pressure: 29.87"   Gusts: NA
Location:  44.2435°N, 92.9583°W
Report Text: KSYN 241613Z AUTO 19009KT 160V220 10SM BKN014 16/12 A2987 RMK AO2 T01600120
Loading
Personal Weather Stations






























Interactive Weather Map
Tropical Storm Tracking
New forecast layout! Learn more

10-Day Weather Forecast

Advertisements
Track Severe Weather on mobile